Time;durP1;ratioP1;P1;durP2;ratioP2;P2;SDS_P1;SDS_P2;PMS_P1;PMS_P2;Temp;Humidity;BMP_temperature;BMP_pressure;BME280_temperature;BME280_humidity;BME280_pressure;Samples;Min_cycle;Max_cycle;Signal;HPM_P1;HPM_P2
2022/04/18 00:01:15;;;;;;;7.95;5.38;;;10.30;40.90;;;;;;5112138;27;20025;-62
2022/04/18 00:03:41;;;;;;;10.25;5.57;;;10.30;40.80;;;;;;5109707;27;20215;-62
2022/04/18 00:06:07;;;;;;;7.10;5.15;;;10.20;40.60;;;;;;5126617;27;20089;-64
2022/04/18 00:08:32;;;;;;;9.27;4.97;;;10.10;40.50;;;;;;5126252;27;20099;-63
2022/04/18 00:10:58;;;;;;;8.40;5.10;;;10.10;40.50;;;;;;5127054;27;20103;-62
2022/04/18 00:13:24;;;;;;;9.30;4.97;;;10.10;40.50;;;;;;5126928;27;20019;-62
2022/04/18 00:15:50;;;;;;;9.73;5.28;;;10.00;40.50;;;;;;5109539;27;20059;-63
2022/04/18 00:18:26;;;;;;;11.20;5.05;;;10.00;40.50;;;;;;5126259;27;20023;-62
2022/04/18 00:20:52;;;;;;;8.57;5.10;;;10.00;40.60;;;;;;5112497;27;20062;-62
2022/04/18 00:23:18;;;;;;;7.68;5.50;;;10.00;40.50;;;;;;5109538;27;20050;-62
2022/04/18 00:25:45;;;;;;;7.75;5.03;;;10.00;40.60;;;;;;5127987;27;20098;-63
2022/04/18 00:28:13;;;;;;;8.93;5.13;;;9.90;40.60;;;;;;5109357;27;20027;-63
2022/04/18 00:30:40;;;;;;;12.75;4.88;;;9.90;40.70;;;;;;5130392;27;20210;-63
2022/04/18 00:33:09;;;;;;;7.57;4.90;;;9.90;40.70;;;;;;5126987;27;20015;-64
2022/04/18 00:35:38;;;;;;;8.60;4.93;;;9.90;40.70;;;;;;5109453;28;20047;-62
2022/04/18 00:38:05;;;;;;;9.27;5.13;;;9.90;40.70;;;;;;5110894;27;20523;-64
2022/04/18 00:40:32;;;;;;;8.23;5.15;;;9.90;40.70;;;;;;5125332;27;20051;-64
2022/04/18 00:43:05;;;;;;;8.10;5.00;;;9.80;40.80;;;;;;5127161;27;20019;-62
2022/04/18 00:45:31;;;;;;;8.90;4.50;;;9.80;40.80;;;;;;5126591;27;20099;-62
2022/04/18 00:47:57;;;;;;;8.25;4.68;;;9.70;40.80;;;;;;5131069;27;20138;-62
2022/04/18 00:50:24;;;;;;;8.43;5.03;;;9.80;40.90;;;;;;5109347;27;20519;-64
2022/04/18 00:52:52;;;;;;;8.60;5.18;;;9.80;40.90;;;;;;5109216;28;20031;-62
2022/04/18 00:55:18;;;;;;;9.32;5.22;;;9.80;40.90;;;;;;5128346;27;20031;-62
2022/04/18 00:57:45;;;;;;;7.93;4.85;;;9.80;40.90;;;;;;5126360;27;20118;-62
2022/04/18 01:00:11;;;;;;;7.72;4.90;;;9.70;40.90;;;;;;5128249;27;20027;-62
2022/04/18 01:02:37;;;;;;;7.65;4.90;;;9.60;41.00;;;;;;5131245;28;20046;-62
2022/04/18 01:05:03;;;;;;;8.55;5.32;;;9.70;41.20;;;;;;5128103;28;20023;-62
2022/04/18 01:07:31;;;;;;;6.70;4.60;;;9.60;41.10;;;;;;5108947;28;20023;-63
2022/04/18 01:09:56;;;;;;;9.73;5.57;;;9.60;41.20;;;;;;5112796;28;20027;-62
2022/04/18 01:12:22;;;;;;;7.72;5.07;;;9.70;41.70;;;;;;5127881;27;20387;-63
2022/04/18 01:14:48;;;;;;;12.45;5.85;;;9.60;41.80;;;;;;5126548;27;20031;-63
2022/04/18 01:17:17;;;;;;;8.32;5.65;;;9.60;42.30;;;;;;5126000;28;20054;-62
2022/04/18 01:19:43;;;;;;;12.35;5.95;;;9.60;42.90;;;;;;5127989;28;20031;-62
2022/04/18 01:22:10;;;;;;;10.82;5.65;;;9.50;43.10;;;;;;5127201;28;20038;-64
2022/04/18 01:30:07;;;;;;;8.38;5.40;;;9.30;44.20;;;;;;5131777;28;20147;-62
2022/04/18 01:32:33;;;;;;;9.80;5.25;;;9.20;44.30;;;;;;5113275;28;20263;-62
2022/04/18 01:34:58;;;;;;;8.60;5.47;;;9.10;44.40;;;;;;5126733;27;20495;-64
2022/04/18 01:37:24;;;;;;;9.20;5.55;;;9.10;44.50;;;;;;5125617;27;20039;-63
2022/04/18 01:39:50;;;;;;;8.18;5.50;;;9.00;44.70;;;;;;5126840;28;20027;-62
2022/04/18 01:42:16;;;;;;;7.47;4.95;;;9.00;44.80;;;;;;5107288;28;20105;-63
2022/04/18 01:44:42;;;;;;;7.65;5.15;;;9.00;45.00;;;;;;5126432;28;20405;-63
2022/04/18 01:47:08;;;;;;;8.48;4.88;;;9.00;45.10;;;;;;5126371;27;20099;-63
2022/04/18 01:49:33;;;;;;;7.97;5.45;;;8.90;45.10;;;;;;5107248;28;20436;-62
2022/04/18 01:51:59;;;;;;;8.65;5.45;;;9.00;45.10;;;;;;5093094;27;20062;-62
2022/04/18 01:54:25;;;;;;;7.85;5.10;;;9.00;45.20;;;;;;5112842;27;20027;-63
2022/04/18 01:56:51;;;;;;;7.80;5.20;;;8.90;45.10;;;;;;5129772;27;20035;-63
2022/04/18 01:59:17;;;;;;;8.60;5.25;;;8.90;45.00;;;;;;5129398;27;20023;-63
2022/04/18 02:01:43;;;;;;;6.47;5.00;;;8.90;45.00;;;;;;5112745;27;20445;-62
2022/04/18 02:04:09;;;;;;;11.07;5.15;;;8.90;45.00;;;;;;5132460;27;20375;-63
2022/04/18 02:06:34;;;;;;;7.13;5.15;;;8.90;45.00;;;;;;5110904;27;20015;-63
2022/04/18 02:09:01;;;;;;;8.25;5.13;;;8.90;45.00;;;;;;5129578;27;20019;-63
2022/04/18 02:11:27;;;;;;;7.93;5.28;;;8.90;45.00;;;;;;5129444;27;20027;-63
2022/04/18 02:13:53;;;;;;;9.07;5.53;;;8.90;45.00;;;;;;5111364;27;20163;-63
2022/04/18 02:16:19;;;;;;;8.15;5.25;;;8.90;45.00;;;;;;5110924;27;20140;-63
2022/04/18 02:18:46;;;;;;;12.02;5.70;;;8.90;45.00;;;;;;5129617;27;20486;-63
2022/04/18 02:21:12;;;;;;;8.93;5.30;;;8.90;45.00;;;;;;5129022;27;20023;-64
2022/04/18 02:23:41;;;;;;;9.35;5.05;;;8.90;44.90;;;;;;5110965;27;20099;-64
2022/04/18 02:26:08;;;;;;;9.30;5.25;;;8.90;44.80;;;;;;5129622;27;20023;-64
2022/04/18 02:28:35;;;;;;;9.98;5.45;;;8.90;45.30;;;;;;5110944;27;20286;-63
2022/04/18 02:31:02;;;;;;;9.95;5.57;;;8.90;44.70;;;;;;5129981;27;20126;-63
2022/04/18 02:33:28;;;;;;;7.53;5.78;;;8.90;44.60;;;;;;5128982;27;20027;-63
2022/04/18 02:35:54;;;;;;;8.90;6.18;;;8.90;44.60;;;;;;5129459;27;20029;-65
2022/04/18 02:38:19;;;;;;;8.20;5.57;;;8.90;44.50;;;;;;5110373;27;20027;-62
2022/04/18 02:40:46;;;;;;;9.73;5.63;;;8.90;44.50;;;;;;5110954;27;20053;-62
2022/04/18 02:43:12;;;;;;;9.10;5.10;;;8.90;44.40;;;;;;5129102;27;20374;-62
2022/04/18 02:45:38;;;;;;;8.02;5.20;;;8.90;44.40;;;;;;5128885;27;20023;-64
2022/04/18 02:48:04;;;;;;;8.80;5.78;;;8.90;44.30;;;;;;5129206;27;20031;-64
2022/04/18 02:50:31;;;;;;;8.73;5.78;;;8.90;44.30;;;;;;5092808;27;20110;-61
2022/04/18 02:52:57;;;;;;;8.98;6.07;;;8.80;44.20;;;;;;5130987;27;20091;-63
2022/04/18 02:55:25;;;;;;;8.73;5.13;;;8.90;44.30;;;;;;5092997;27;20027;-62
2022/04/18 02:57:51;;;;;;;8.68;5.18;;;8.90;44.30;;;;;;5109128;27;20484;-62
2022/04/18 03:00:17;;;;;;;9.65;5.65;;;8.80;44.30;;;;;;5109890;27;20026;-64
2022/04/18 03:02:43;;;;;;;9.35;6.05;;;8.80;44.30;;;;;;5129348;27;20558;-63
2022/04/18 03:05:10;;;;;;;7.75;5.35;;;8.80;44.40;;;;;;5129558;27;20447;-63
2022/04/18 03:07:37;;;;;;;9.70;5.88;;;8.80;44.40;;;;;;5129335;27;20436;-62
2022/04/18 03:10:04;;;;;;;9.88;5.40;;;8.70;44.40;;;;;;5133389;27;20095;-63
2022/04/18 03:12:30;;;;;;;7.43;5.32;;;8.70;44.40;;;;;;5131786;27;20023;-62
2022/04/18 03:14:56;;;;;;;8.05;5.55;;;8.80;44.50;;;;;;5133619;27;20019;-62
2022/04/18 03:17:21;;;;;;;12.13;5.70;;;8.70;44.50;;;;;;5112975;27;20559;-64
2022/04/18 03:19:47;;;;;;;8.75;5.57;;;8.80;44.60;;;;;;5109951;27;20024;-63
2022/04/18 03:22:13;;;;;;;9.38;5.80;;;8.70;44.70;;;;;;5109919;27;20110;-62
2022/04/18 03:24:39;;;;;;;8.13;5.35;;;8.70;44.70;;;;;;5111607;27;20030;-62
2022/04/18 03:27:05;;;;;;;8.60;5.25;;;8.70;44.80;;;;;;5128103;27;20444;-63
2022/04/18 03:29:31;;;;;;;8.40;5.57;;;8.70;44.90;;;;;;5129893;27;20472;-62
2022/04/18 03:31:58;;;;;;;9.35;6.05;;;8.70;45.00;;;;;;5129894;27;20026;-63
2022/04/18 03:34:24;;;;;;;8.98;6.07;;;8.60;45.10;;;;;;5109144;27;20031;-62
2022/04/18 03:39:50;;;;;;;10.07;6.15;;;8.60;45.10;;;;;;5129900;27;20603;-62
2022/04/18 03:42:29;;;;;;;8.57;5.90;;;8.60;45.20;;;;;;5127968;27;20126;-64
2022/04/18 03:44:58;;;;;;;8.38;5.63;;;8.60;45.20;;;;;;5127979;27;20019;-63
2022/04/18 03:47:24;;;;;;;10.77;5.25;;;8.60;45.30;;;;;;5110402;27;20433;-62
2022/04/18 03:49:50;;;;;;;13.32;5.78;;;8.60;45.50;;;;;;5131080;27;20076;-63
2022/04/18 03:52:16;;;;;;;7.40;5.10;;;8.60;45.40;;;;;;5132465;27;20023;-63
2022/04/18 03:54:43;;;;;;;9.43;5.13;;;8.50;45.40;;;;;;5129496;27;20066;-64
2022/04/18 03:57:09;;;;;;;10.20;5.72;;;8.50;45.50;;;;;;5128232;27;20072;-63
2022/04/18 03:59:35;;;;;;;7.50;5.07;;;8.50;45.70;;;;;;5126855;27;20019;-62
2022/04/18 04:02:01;;;;;;;10.52;5.13;;;8.50;45.70;;;;;;5128521;27;20114;-63
2022/04/18 04:04:28;;;;;;;8.00;4.90;;;8.50;45.70;;;;;;5128423;27;20023;-63
2022/04/18 04:06:54;;;;;;;9.10;5.20;;;8.40;45.80;;;;;;5109504;27;20266;-65
2022/04/18 04:09:19;;;;;;;6.85;4.90;;;8.40;46.60;;;;;;5128639;27;20019;-62
2022/04/18 04:11:45;;;;;;;7.22;4.90;;;8.40;46.30;;;;;;5130590;27;20578;-62
2022/04/18 04:14:11;;;;;;;8.27;5.13;;;8.40;46.40;;;;;;5127904;27;20031;-63
2022/04/18 04:16:40;;;;;;;8.85;5.32;;;8.20;46.70;;;;;;5126324;27;20244;-64
2022/04/18 04:19:06;;;;;;;8.10;5.32;;;8.20;46.90;;;;;;5128307;27;20113;-61
2022/04/18 04:21:33;;;;;;;7.40;5.13;;;8.10;47.00;;;;;;5110349;27;20185;-62
2022/04/18 04:24:00;;;;;;;7.50;5.45;;;8.20;47.00;;;;;;5111915;28;20027;-62
2022/04/18 04:26:25;;;;;;;10.13;5.97;;;8.10;47.10;;;;;;5109738;27;20203;-63
2022/04/18 04:28:51;;;;;;;9.50;5.50;;;8.10;47.30;;;;;;5128348;27;20070;-62
2022/04/18 04:31:17;;;;;;;7.75;5.40;;;8.10;47.50;;;;;;5108835;27;20027;-62
2022/04/18 04:33:42;;;;;;;10.30;5.57;;;8.00;47.60;;;;;;5127644;27;20027;-63
2022/04/18 04:36:08;;;;;;;9.85;6.00;;;8.00;47.70;;;;;;5109863;28;20023;-62
2022/04/18 04:38:34;;;;;;;9.38;5.70;;;8.10;47.70;;;;;;5109168;27;20031;-64
2022/04/18 04:41:02;;;;;;;12.35;5.38;;;8.10;48.30;;;;;;5108213;27;20043;-63
2022/04/18 04:43:28;;;;;;;10.40;6.38;;;8.20;47.50;;;;;;5127476;27;20037;-63
2022/04/18 04:45:57;;;;;;;10.00;5.22;;;8.30;47.50;;;;;;5128446;27;20109;-63
2022/04/18 04:48:24;;;;;;;8.95;5.78;;;8.40;47.40;;;;;;5126532;27;20096;-64
2022/04/18 04:50:50;;;;;;;8.63;5.40;;;8.50;47.30;;;;;;5092396;28;20045;-63
2022/04/18 04:53:16;;;;;;;11.88;5.15;;;8.60;47.20;;;;;;5128356;27;20111;-63
2022/04/18 04:55:42;;;;;;;10.00;5.63;;;8.70;47.00;;;;;;5128311;27;20265;-62
2022/04/18 04:58:09;;;;;;;9.65;5.55;;;8.70;46.70;;;;;;5127494;27;20031;-63
2022/04/18 05:00:35;;;;;;;8.48;5.18;;;8.80;46.60;;;;;;5127278;27;20028;-62
2022/04/18 05:03:02;;;;;;;8.70;5.28;;;8.90;46.30;;;;;;5126873;27;20050;-62
2022/04/18 05:05:28;;;;;;;8.45;5.60;;;9.00;46.00;;;;;;5128384;28;20023;-63
2022/04/18 05:07:55;;;;;;;9.35;5.97;;;9.20;45.80;;;;;;5108114;28;20502;-62
2022/04/18 05:10:21;;;;;;;8.70;5.20;;;9.20;45.60;;;;;;5128032;28;20031;-62
2022/04/18 05:12:47;;;;;;;10.45;5.70;;;9.30;45.30;;;;;;5127493;28;20085;-63
2022/04/18 05:15:13;;;;;;;13.50;6.53;;;9.40;45.10;;;;;;5111619;28;20558;-63
2022/04/18 05:17:39;;;;;;;6.97;5.00;;;9.50;45.00;;;;;;5126493;27;20200;-63
2022/04/18 05:20:05;;;;;;;7.75;5.10;;;9.60;44.70;;;;;;5108158;28;20368;-62
2022/04/18 05:22:31;;;;;;;7.43;5.00;;;9.70;44.30;;;;;;5127391;28;20050;-64
2022/04/18 05:24:57;;;;;;;8.50;5.13;;;9.90;44.00;;;;;;5127401;28;20110;-63
2022/04/18 05:27:23;;;;;;;8.23;5.10;;;10.00;43.80;;;;;;5128540;27;20027;-62
2022/04/18 05:29:49;;;;;;;9.05;5.93;;;10.10;43.70;;;;;;5112888;27;20383;-63
2022/04/18 05:32:15;;;;;;;9.63;5.32;;;10.10;43.60;;;;;;5132072;27;20031;-63
2022/04/18 05:34:41;;;;;;;7.93;5.07;;;10.20;43.10;;;;;;5130267;27;20328;-61
2022/04/18 05:37:07;;;;;;;8.93;4.65;;;10.30;42.40;;;;;;5112808;27;20031;-63
2022/04/18 05:39:33;;;;;;;6.90;4.40;;;10.30;41.80;;;;;;5111807;27;20063;-64
2022/04/18 05:41:59;;;;;;;8.85;4.60;;;10.30;41.40;;;;;;5130456;27;20043;-64
2022/04/18 05:44:26;;;;;;;6.13;4.35;;;10.30;41.20;;;;;;5130052;27;20467;-63
2022/04/18 05:46:52;;;;;;;8.98;4.53;;;10.30;41.10;;;;;;5112124;27;20035;-62
2022/04/18 05:49:18;;;;;;;8.50;5.00;;;10.30;41.30;;;;;;5131014;27;20079;-63
2022/04/18 05:54:27;;;;;;;7.32;4.93;;;10.50;41.40;;;;;;5133036;27;20505;-63
2022/04/18 05:56:53;;;;;;;7.72;4.63;;;10.50;41.20;;;;;;5111221;27;20034;-66
2022/04/18 05:59:19;;;;;;;6.65;4.43;;;10.60;41.20;;;;;;5128865;27;20023;-61
2022/04/18 06:01:45;;;;;;;6.78;4.38;;;10.60;41.10;;;;;;5111062;27;20505;-61
2022/04/18 06:04:10;;;;;;;6.47;4.40;;;10.70;41.00;;;;;;5129790;27;20023;-60
2022/04/18 06:06:36;;;;;;;6.90;4.40;;;10.70;40.70;;;;;;5112974;27;20435;-60
2022/04/18 06:09:02;;;;;;;6.70;4.15;;;10.70;40.60;;;;;;5132016;27;20019;-62
2022/04/18 06:11:28;;;;;;;6.85;4.22;;;10.80;40.50;;;;;;5131547;27;20102;-61
2022/04/18 06:13:54;;;;;;;6.18;4.50;;;10.90;40.20;;;;;;5132162;27;20183;-61
2022/04/18 06:16:20;;;;;;;6.95;4.50;;;10.90;40.10;;;;;;5111282;27;20024;-61
2022/04/18 06:18:46;;;;;;;5.72;4.00;;;10.90;40.10;;;;;;5112572;27;20058;-61
2022/04/18 06:21:12;;;;;;;6.55;4.25;;;11.00;40.00;;;;;;5130162;27;20019;-61
2022/04/18 06:23:38;;;;;;;5.35;3.92;;;11.00;40.00;;;;;;5130439;27;20452;-61
2022/04/18 06:26:03;;;;;;;6.95;4.15;;;11.10;39.80;;;;;;5111354;27;20029;-61
2022/04/18 06:28:29;;;;;;;7.57;4.40;;;11.20;39.80;;;;;;5128437;27;20027;-61
2022/04/18 06:30:55;;;;;;;7.53;4.57;;;11.20;39.70;;;;;;5111183;27;20055;-61
2022/04/18 06:33:20;;;;;;;6.38;4.25;;;11.20;39.70;;;;;;5114074;27;20507;-62
2022/04/18 06:35:46;;;;;;;7.28;4.10;;;11.30;39.50;;;;;;5128594;27;20023;-61
2022/04/18 06:38:12;;;;;;;5.38;3.95;;;11.30;39.30;;;;;;5129556;27;20042;-61
2022/04/18 06:40:38;;;;;;;8.05;3.85;;;11.20;39.40;;;;;;5132537;27;20026;-61
2022/04/18 06:43:03;;;;;;;7.97;4.00;;;11.30;39.50;;;;;;5109952;27;20023;-61
2022/04/18 06:45:31;;;;;;;10.85;4.00;;;11.30;39.40;;;;;;5129773;27;20028;-61
2022/04/18 06:47:57;;;;;;;5.75;3.85;;;11.40;39.30;;;;;;5129060;27;20459;-61
2022/04/18 06:50:22;;;;;;;6.97;4.15;;;11.30;39.30;;;;;;5129197;27;20030;-61
2022/04/18 06:52:51;;;;;;;6.15;4.07;;;11.30;39.50;;;;;;5130834;27;20027;-61
2022/04/18 06:58:20;;;;;;;5.65;3.72;;;11.30;39.60;;;;;;5129967;27;20096;-61
2022/04/18 07:00:46;;;;;;;6.20;3.65;;;11.30;39.50;;;;;;5133556;27;20027;-61
2022/04/18 07:03:12;;;;;;;6.18;3.80;;;11.20;39.40;;;;;;5110772;27;20405;-62
2022/04/18 07:05:40;;;;;;;10.68;6.55;;;11.20;39.40;;;;;;5132085;27;20194;-62
2022/04/18 07:08:07;;;;;;;6.07;4.32;;;11.30;39.50;;;;;;5130089;27;20031;-62
2022/04/18 07:10:32;;;;;;;6.13;3.55;;;11.40;39.40;;;;;;5128180;27;20064;-62
2022/04/18 07:13:16;;;;;;;5.68;3.67;;;11.50;39.40;;;;;;5129392;27;20060;-62
2022/04/18 07:15:42;;;;;;;;;;;11.50;39.10;;;;;;5129278;27;20077;-60
2022/04/18 07:18:08;;;;;;;6.60;4.10;;;11.30;39.30;;;;;;5111160;27;19958;-61
2022/04/18 07:20:34;;;;;;;7.57;4.18;;;11.30;39.50;;;;;;5109252;27;20055;-60
2022/04/18 07:23:00;;;;;;;7.68;4.30;;;11.30;39.50;;;;;;5130987;27;20027;-61
2022/04/18 07:25:25;;;;;;;5.65;4.07;;;11.30;39.60;;;;;;5129155;27;20630;-62
2022/04/18 07:27:51;;;;;;;7.00;4.28;;;11.40;39.40;;;;;;5129391;27;20500;-61
2022/04/18 07:30:17;;;;;;;6.95;3.88;;;11.40;39.40;;;;;;5130252;27;20448;-61
2022/04/18 07:32:43;;;;;;;5.57;3.72;;;11.40;39.30;;;;;;5128881;27;20257;-61
2022/04/18 07:35:11;;;;;;;5.95;3.63;;;11.30;39.40;;;;;;5127983;27;20023;-60
2022/04/18 07:38:48;;;;;;;7.78;4.57;;;11.30;39.40;;;;;;5109490;27;20062;-62
2022/04/18 07:40:23;;;;;;;6.15;3.53;;;11.40;39.40;;;;;;5126922;27;20279;-61
2022/04/18 07:42:48;;;;;;;5.18;3.55;;;11.50;39.10;;;;;;5109355;27;20061;-62
2022/04/18 07:45:14;;;;;;;8.32;5.20;;;11.40;39.10;;;;;;5109462;27;20023;-61
2022/04/18 07:47:40;;;;;;;11.07;6.60;;;11.50;39.20;;;;;;5127007;27;20256;-61
2022/04/18 07:50:06;;;;;;;10.82;6.90;;;11.50;39.30;;;;;;5132435;27;20055;-60
2022/04/18 07:52:32;;;;;;;8.82;5.90;;;11.60;39.20;;;;;;5128483;27;20027;-61
2022/04/18 07:54:57;;;;;;;8.20;4.65;;;11.60;39.00;;;;;;5130108;27;20019;-62
2022/04/18 07:57:24;;;;;;;7.93;4.50;;;11.70;39.00;;;;;;5126535;27;20038;-63
2022/04/18 07:59:50;;;;;;;6.85;3.92;;;11.60;39.10;;;;;;5109600;27;20030;-62
2022/04/18 08:02:16;;;;;;;6.57;3.45;;;11.50;39.10;;;;;;5130342;27;20023;-61
2022/04/18 08:04:42;;;;;;;4.68;3.33;;;11.50;39.30;;;;;;5127528;27;20106;-62
2022/04/18 08:07:08;;;;;;;6.90;3.95;;;11.40;39.40;;;;;;5110054;27;20065;-62
2022/04/18 08:09:34;;;;;;;6.70;4.00;;;11.40;39.60;;;;;;5126326;27;20022;-62
2022/04/18 08:12:00;;;;;;;9.48;4.28;;;11.40;39.80;;;;;;5112083;27;20067;-61
2022/04/18 08:14:25;;;;;;;7.72;4.35;;;11.30;40.10;;;;;;5113076;27;20026;-64
2022/04/18 08:16:51;;;;;;;5.38;3.78;;;11.30;40.30;;;;;;5131646;27;20543;-63
2022/04/18 08:19:17;;;;;;;8.27;3.80;;;11.20;40.70;;;;;;5131688;27;20493;-63
2022/04/18 08:21:42;;;;;;;6.28;3.80;;;11.10;41.20;;;;;;5113225;27;20425;-64
2022/04/18 08:24:08;;;;;;;5.57;3.50;;;11.10;41.50;;;;;;5113513;27;20388;-62
2022/04/18 08:26:34;;;;;;;6.00;3.70;;;11.00;41.70;;;;;;5131053;27;20033;-63
2022/04/18 08:28:59;;;;;;;7.47;4.65;;;11.10;42.00;;;;;;5131776;27;20056;-64
2022/04/18 08:31:25;;;;;;;8.20;5.93;;;11.10;42.40;;;;;;5112338;27;20023;-62
2022/04/18 08:33:51;;;;;;;7.40;5.28;;;11.10;42.80;;;;;;5131722;27;20031;-62
2022/04/18 08:36:17;;;;;;;6.55;4.45;;;11.20;43.30;;;;;;5131669;27;20516;-65
2022/04/18 08:38:43;;;;;;;10.15;4.00;;;11.30;44.10;;;;;;5131116;27;20487;-62
2022/04/18 08:41:11;;;;;;;5.80;3.85;;;11.30;44.90;;;;;;5131687;27;20048;-62
2022/04/18 08:43:40;;;;;;;6.65;4.07;;;11.20;45.40;;;;;;5130984;27;20015;-64
2022/04/18 08:46:06;;;;;;;6.07;4.05;;;11.20;45.40;;;;;;5131363;27;20111;-63
2022/04/18 08:54:05;;;;;;;7.97;4.05;;;11.30;44.90;;;;;;5131356;27;20034;-63
2022/04/18 08:56:32;;;;;;;6.63;4.35;;;11.20;44.20;;;;;;5112477;28;20031;-63
2022/04/18 08:58:57;;;;;;;6.25;4.00;;;11.20;43.90;;;;;;5112770;28;20054;-63
2022/04/18 09:01:23;;;;;;;6.75;4.03;;;11.20;43.80;;;;;;5112050;28;20082;-65
2022/04/18 09:03:49;;;;;;;6.22;4.28;;;11.20;43.70;;;;;;5130824;28;20523;-63
2022/04/18 09:06:16;;;;;;;6.43;4.30;;;11.20;43.70;;;;;;5131792;28;20035;-63
2022/04/18 09:08:52;;;;;;;6.53;4.18;;;11.10;43.60;;;;;;5131020;27;20023;-62
2022/04/18 09:11:30;;;;;;;6.63;4.32;;;11.00;43.70;;;;;;5113074;28;20031;-65
2022/04/18 09:14:06;;;;;;;5.97;4.00;;;11.00;44.00;;;;;;5131442;28;20467;-62
2022/04/18 09:16:33;;;;;;;6.93;4.60;;;11.10;44.30;;;;;;5112674;28;20030;-62
2022/04/18 09:19:16;;;;;;;6.15;4.40;;;11.20;44.30;;;;;;5112358;28;20092;-63
2022/04/18 09:21:43;;;;;;;7.03;4.43;;;11.20;44.70;;;;;;5130761;28;20465;-63
2022/04/18 09:24:31;;;;;;;7.32;4.22;;;11.20;44.50;;;;;;5112603;28;20275;-68
2022/04/18 09:27:12;;;;;;;7.10;4.45;;;11.40;44.60;;;;;;5130994;28;20019;-67
2022/04/18 09:29:39;;;;;;;5.60;4.10;;;11.50;44.30;;;;;;5130782;28;20245;-71
2022/04/18 09:32:09;;;;;;;5.93;4.07;;;11.40;44.30;;;;;;5131709;27;20030;-67
2022/04/18 09:34:35;;;;;;;10.63;4.40;;;11.40;44.70;;;;;;5131178;27;20045;-68
2022/04/18 09:37:14;;;;;;;6.65;4.50;;;11.50;45.20;;;;;;5130346;28;20084;-68
2022/04/18 09:39:50;;;;;;;8.35;4.82;;;11.50;45.60;;;;;;5112312;28;20106;-65
2022/04/18 09:42:21;;;;;;;7.53;4.90;;;11.60;45.80;;;;;;5113549;28;20103;-66
2022/04/18 09:44:46;;;;;;;10.82;4.95;;;11.70;45.70;;;;;;5131893;28;20023;-65
2022/04/18 09:47:16;;;;;;;7.78;4.90;;;11.90;45.60;;;;;;5132274;27;20118;-62
2022/04/18 09:49:42;;;;;;;8.20;4.80;;;12.00;45.70;;;;;;5130949;27;20018;-62
2022/04/18 09:52:11;;;;;;;7.43;4.70;;;12.10;45.80;;;;;;5131652;27;20494;-62
2022/04/18 09:55:04;;;;;;;6.93;5.05;;;12.20;46.10;;;;;;5111255;28;20030;-62
2022/04/18 09:57:30;;;;;;;6.93;4.53;;;12.40;46.00;;;;;;5129689;28;20038;-63
2022/04/18 09:59:59;;;;;;;6.18;4.45;;;12.60;45.80;;;;;;5130571;27;20024;-63
2022/04/18 10:02:26;;;;;;;8.57;4.75;;;12.90;45.90;;;;;;5130542;27;20070;-63
2022/04/18 10:04:52;;;;;;;6.20;4.70;;;13.50;45.30;;;;;;5129874;27;20530;-63
2022/04/18 10:07:20;;;;;;;7.88;5.18;;;14.00;44.40;;;;;;5130839;27;20046;-63
2022/04/18 10:09:46;;;;;;;6.43;4.35;;;14.40;44.30;;;;;;5130702;28;20380;-61
2022/04/18 10:12:13;;;;;;;6.93;5.07;;;14.80;42.80;;;;;;5112283;28;20034;-63
2022/04/18 10:14:40;;;;;;;8.15;5.88;;;15.00;42.10;;;;;;5115330;27;20568;-62
2022/04/18 10:17:08;;;;;;;6.90;4.82;;;15.00;41.90;;;;;;5134501;27;20035;-63
2022/04/18 10:19:58;;;;;;;7.85;4.80;;;15.20;41.90;;;;;;5115070;27;20152;-62
2022/04/18 10:23:03;;;;;;;8.25;4.43;;;15.20;42.20;;;;;;5115904;27;20427;-65
2022/04/18 10:25:51;;;;;;;6.07;4.38;;;15.30;41.50;;;;;;5131277;27;20019;-65
2022/04/18 10:28:21;;;;;;;9.68;4.50;;;15.50;40.90;;;;;;5111196;27;20050;-61
2022/04/18 10:30:56;;;;;;;7.90;4.88;;;15.40;40.50;;;;;;5132888;27;20746;-62
2022/04/18 10:33:24;;;;;;;6.72;4.55;;;15.50;40.50;;;;;;5114944;27;20380;-64
2022/04/18 10:36:02;;;;;;;11.50;5.47;;;15.60;40.90;;;;;;5115126;27;20392;-61
2022/04/18 10:38:31;;;;;;;9.55;4.40;;;15.50;39.90;;;;;;5134317;27;20384;-59
2022/04/18 10:41:16;;;;;;;9.55;4.38;;;15.30;40.00;;;;;;5134626;27;20066;-61
2022/04/18 10:43:53;;;;;;;7.32;4.70;;;15.00;40.40;;;;;;5134440;27;20023;-62
2022/04/18 10:46:20;;;;;;;8.65;4.20;;;14.80;40.90;;;;;;5116360;27;20029;-62
2022/04/18 10:48:56;;;;;;;9.30;4.40;;;14.70;41.30;;;;;;5134821;27;20379;-62
2022/04/18 10:51:37;;;;;;;7.95;4.60;;;14.70;41.10;;;;;;5134564;27;20517;-66
2022/04/18 10:54:13;;;;;;;6.95;4.07;;;14.70;40.70;;;;;;5134122;27;20023;-63
2022/04/18 10:57:01;;;;;;;8.43;4.32;;;14.80;40.80;;;;;;5115433;27;20023;-61
2022/04/18 10:59:35;;;;;;;8.45;4.10;;;14.70;40.90;;;;;;5134112;27;20499;-58
2022/04/18 11:02:03;;;;;;;7.13;4.47;;;14.70;41.20;;;;;;5115663;27;20023;-60
2022/04/18 11:04:30;;;;;;;7.75;4.25;;;14.70;40.90;;;;;;5133690;27;20023;-60
2022/04/18 11:07:06;;;;;;;7.80;4.18;;;14.90;40.70;;;;;;5134506;27;20361;-61
2022/04/18 11:09:42;;;;;;;7.97;4.57;;;15.00;40.60;;;;;;5115475;27;20030;-58
2022/04/18 11:12:20;;;;;;;7.30;4.63;;;15.00;40.60;;;;;;5115854;27;20023;-59
2022/04/18 11:14:53;;;;;;;7.32;4.57;;;15.10;40.40;;;;;;5115532;27;20023;-57
2022/04/18 11:17:40;;;;;;;6.60;4.50;;;15.20;40.20;;;;;;5134492;27;20027;-57
2022/04/18 11:20:28;;;;;;;8.63;4.40;;;15.20;40.50;;;;;;5134073;27;20038;-60
2022/04/18 11:23:19;;;;;;;10.32;4.78;;;15.20;40.30;;;;;;5134022;27;20460;-59
2022/04/18 11:26:02;;;;;;;7.40;4.60;;;15.00;40.40;;;;;;5132016;27;20024;-60
2022/04/18 11:28:39;;;;;;;7.40;4.57;;;15.00;40.60;;;;;;5114397;27;20027;-61
2022/04/18 11:31:10;;;;;;;10.18;4.65;;;15.00;40.80;;;;;;5133433;27;20102;-59
2022/04/18 11:33:43;;;;;;;6.68;4.72;;;15.00;40.50;;;;;;5132264;27;20143;-61
2022/04/18 11:36:10;;;;;;;6.22;4.25;;;15.00;40.80;;;;;;5114413;27;20475;-58
2022/04/18 11:38:36;;;;;;;8.38;4.30;;;14.90;40.60;;;;;;5132160;27;20065;-59
2022/04/18 11:41:10;;;;;;;7.95;4.68;;;14.80;40.90;;;;;;5112959;27;20079;-61
2022/04/18 11:43:36;;;;;;;;;;;14.80;41.10;;;;;;5131652;27;20022;-62
2022/04/18 11:46:09;;;;;;;6.60;4.60;;;15.10;40.50;;;;;;5114349;27;19903;-60
2022/04/18 11:48:35;;;;;;;6.70;4.70;;;15.10;40.10;;;;;;5114385;27;20126;-62
2022/04/18 11:51:02;;;;;;;6.88;4.68;;;15.10;40.20;;;;;;5132589;27;20094;-63
2022/04/18 11:53:33;;;;;;;7.38;4.63;;;15.20;40.00;;;;;;5132054;27;20027;-62
2022/04/18 11:56:03;;;;;;;6.57;4.20;;;15.20;39.80;;;;;;5132191;27;20046;-62
2022/04/18 11:58:35;;;;;;;6.75;4.25;;;15.00;40.10;;;;;;5131842;27;20054;-64
2022/04/18 12:06:46;;;;;;;8.10;4.72;;;15.20;40.60;;;;;;5132177;27;20022;-63
2022/04/18 12:09:14;;;;;;;8.60;4.10;;;15.40;40.30;;;;;;5131423;27;20027;-65
2022/04/18 12:12:02;;;;;;;5.68;4.07;;;15.40;40.10;;;;;;5113020;27;20058;-66
2022/04/18 12:14:31;;;;;;;6.47;4.60;;;15.50;40.60;;;;;;5131796;27;20037;-65
2022/04/18 12:17:01;;;;;;;9.57;4.30;;;15.80;40.00;;;;;;5132651;27;20091;-68
2022/04/18 12:19:28;;;;;;;8.43;4.22;;;15.70;38.90;;;;;;5131655;27;20029;-67
2022/04/18 12:21:55;;;;;;;8.90;4.57;;;15.50;39.10;;;;;;5113914;27;20038;-63
2022/04/18 12:24:21;;;;;;;7.60;4.45;;;15.50;39.20;;;;;;5131802;27;20019;-64
2022/04/18 12:26:51;;;;;;;10.57;4.30;;;15.50;38.80;;;;;;5112784;27;20471;-64
2022/04/18 12:29:20;;;;;;;7.18;4.20;;;15.50;38.80;;;;;;5112789;27;20034;-64
2022/04/18 12:31:46;;;;;;;7.07;4.80;;;15.40;38.60;;;;;;5111927;27;20016;-62
2022/04/18 12:34:22;;;;;;;8.75;5.07;;;15.30;38.90;;;;;;5112615;27;20019;-62
2022/04/18 12:36:59;;;;;;;5.82;4.07;;;15.40;38.40;;;;;;5111792;27;20058;-62
2022/04/18 12:39:26;;;;;;;8.35;5.13;;;15.40;37.30;;;;;;5112598;27;20035;-65
2022/04/18 12:42:03;;;;;;;8.43;3.85;;;15.60;36.90;;;;;;5130672;27;20130;-64
2022/04/18 12:44:29;;;;;;;6.30;4.07;;;15.80;35.60;;;;;;5112482;27;20118;-65
2022/04/18 12:46:56;;;;;;;9.68;3.60;;;15.70;35.80;;;;;;5113632;27;20051;-64
2022/04/18 12:49:22;;;;;;;5.65;4.03;;;15.70;36.30;;;;;;5113209;27;20131;-64
2022/04/18 12:51:52;;;;;;;9.70;4.60;;;15.90;36.00;;;;;;5112530;27;20107;-65
2022/04/18 12:54:26;;;;;;;5.80;4.03;;;15.90;35.90;;;;;;5131577;27;20034;-64
2022/04/18 12:56:53;;;;;;;5.45;3.85;;;16.10;35.80;;;;;;5113204;28;20054;-65
2022/04/18 12:59:25;;;;;;;7.55;3.80;;;16.20;35.00;;;;;;5131910;27;20046;-68
2022/04/18 13:01:51;;;;;;;10.88;3.90;;;16.20;35.20;;;;;;5113446;28;20191;-63
2022/04/18 13:04:27;;;;;;;5.20;3.92;;;16.20;35.60;;;;;;5131450;27;20027;-63
2022/04/18 13:07:05;;;;;;;9.52;4.82;;;16.10;35.40;;;;;;5113125;28;20050;-66
2022/04/18 13:09:37;;;;;;;6.68;4.32;;;16.00;35.20;;;;;;5130524;28;20181;-63
2022/04/18 13:12:08;;;;;;;7.83;5.03;;;16.10;35.40;;;;;;5131497;28;20371;-62
2022/04/18 13:14:54;;;;;;;5.72;3.80;;;16.10;35.20;;;;;;5111873;28;20152;-61
2022/04/18 13:17:20;;;;;;;6.10;4.45;;;16.10;35.50;;;;;;5112721;28;20031;-64
2022/04/18 13:19:46;;;;;;;6.75;4.28;;;16.00;35.70;;;;;;5112093;28;20192;-65
2022/04/18 13:22:13;;;;;;;8.38;3.80;;;15.90;36.00;;;;;;5112642;28;20122;-67